Time;durP1;ratioP1;P1;durP2;ratioP2;P2;SDS_P1;SDS_P2;PMS_P1;PMS_P2;Temp;Humidity;BMP_temperature;BMP_pressure;BME280_temperature;BME280_humidity;BME280_pressure;Samples;Min_cycle;Max_cycle;Signal;HPM_P1;HPM_P2
2021/06/17 00:00:24;;;;;;;11.85;6.68;;;512.20;1996.80;;;;;;5056773;28;20539;-76
2021/06/17 00:02:53;;;;;;;10.10;6.30;;;512.20;1996.80;;;;;;5056828;28;20021;-77
2021/06/17 00:05:19;;;;;;;9.77;5.60;;;512.20;1996.80;;;;;;5056492;28;20163;-76
2021/06/17 00:07:46;;;;;;;9.15;6.65;;;512.20;1996.80;;;;;;5056505;28;20473;-76
2021/06/17 00:10:24;;;;;;;9.48;6.82;;;512.20;1996.80;;;;;;5056484;28;20027;-74
2021/06/17 00:12:50;;;;;;;8.57;6.03;;;512.20;1996.80;;;;;;5056646;28;20079;-77
2021/06/17 00:15:17;;;;;;;8.52;5.35;;;512.20;1996.80;;;;;;5056663;28;20021;-76
2021/06/17 00:17:44;;;;;;;8.43;5.70;;;512.10;2022.40;;;;;;5056494;28;20510;-76
2021/06/17 00:20:11;;;;;;;11.25;6.18;;;512.10;1996.80;;;;;;5056489;28;20120;-77
2021/06/17 00:22:37;;;;;;;10.45;6.07;;;512.10;1996.80;;;;;;5056149;28;20056;-75
2021/06/17 00:25:04;;;;;;;12.20;7.20;;;512.10;2022.40;;;;;;5058755;28;20488;-76
2021/06/17 00:27:30;;;;;;;9.55;5.50;;;512.10;2022.40;;;;;;5061148;28;20131;-76
2021/06/17 00:29:56;;;;;;;5.80;4.93;;;512.00;2022.40;;;;;;5056209;28;20487;-76
2021/06/17 00:32:21;;;;;;;8.02;5.88;;;512.00;2022.40;;;;;;5062432;28;20025;-75
2021/06/17 00:34:47;;;;;;;8.55;5.85;;;512.00;2022.40;;;;;;5075336;28;20020;-75
2021/06/17 00:37:13;;;;;;;11.18;5.60;;;487.30;2022.40;;;;;;5078732;28;20353;-77
2021/06/17 00:39:40;;;;;;;12.45;6.28;;;487.30;2022.40;;;;;;5078028;28;20029;-76
2021/06/17 00:42:06;;;;;;;7.07;5.53;;;487.30;2022.40;;;;;;5068671;28;20032;-75
2021/06/17 00:44:33;;;;;;;9.98;6.18;;;487.30;2022.40;;;;;;5055816;28;20052;-76
2021/06/17 00:46:59;;;;;;;10.93;6.07;;;487.30;2048.00;;;;;;5055797;28;20037;-74
2021/06/17 00:49:26;;;;;;;9.82;6.00;;;487.30;2048.00;;;;;;5055679;28;20028;-74
2021/06/17 00:51:52;;;;;;;9.48;5.22;;;487.30;2048.00;;;;;;5055873;28;20032;-75
2021/06/17 00:54:33;;;;;;;9.82;6.28;;;487.20;2048.00;;;;;;5055384;28;20045;-76
2021/06/17 00:57:03;;;;;;;7.38;6.35;;;487.20;2048.00;;;;;;5055652;28;20112;-75
2021/06/17 00:59:30;;;;;;;9.88;6.72;;;487.20;2048.00;;;;;;5055495;28;20477;-75
2021/06/17 01:01:56;;;;;;;8.63;6.78;;;487.20;2073.60;;;;;;5055498;28;20017;-76
2021/06/17 01:04:26;;;;;;;10.77;7.63;;;486.80;2150.40;;;;;;5055577;28;20525;-74
2021/06/17 01:06:53;;;;;;;16.48;8.70;;;486.50;2201.60;;;;;;5055577;28;20033;-75
2021/06/17 01:09:43;;;;;;;12.85;8.48;;;461.60;2252.80;;;;;;5055150;28;20064;-74
2021/06/17 01:12:22;;;;;;;17.92;9.98;;;461.50;2278.40;;;;;;5056972;28;20044;-75
2021/06/17 01:14:58;;;;;;;13.73;7.82;;;461.40;2278.40;;;;;;5063224;28;20040;-74
2021/06/17 01:17:26;;;;;;;12.18;9.25;;;461.40;2278.40;;;;;;5062541;28;20036;-78
2021/06/17 01:20:01;;;;;;;14.20;9.00;;;461.50;2278.40;;;;;;5060222;28;20036;-77
2021/06/17 01:22:53;;;;;;;13.27;9.13;;;461.40;2304.00;;;;;;5059649;28;20028;-74
2021/06/17 01:25:43;;;;;;;14.00;8.75;;;461.30;2329.60;;;;;;5064035;28;20186;-75
2021/06/17 01:28:16;;;;;;;21.23;10.57;;;461.20;2355.20;;;;;;5067076;28;20032;-75
2021/06/17 01:30:47;;;;;;;12.82;10.00;;;461.20;2355.20;;;;;;5056969;28;20037;-74
2021/06/17 01:33:15;;;;;;;17.02;10.48;;;461.30;2329.60;;;;;;5052939;28;20063;-75
2021/06/17 01:35:50;;;;;;;13.10;9.07;;;461.40;2304.00;;;;;;5052809;28;20041;-75
2021/06/17 01:38:19;;;;;;;14.93;9.38;;;461.50;2304.00;;;;;;5053003;28;20029;-75
2021/06/17 01:40:47;;;;;;;14.27;9.05;;;461.60;2278.40;;;;;;5052367;28;20087;-75
2021/06/17 01:43:15;;;;;;;12.43;9.00;;;461.60;2278.40;;;;;;5052602;28;20033;-76
2021/06/17 01:45:42;;;;;;;14.48;8.82;;;461.50;2304.00;;;;;;5051575;28;20029;-75
2021/06/17 01:48:08;;;;;;;12.82;9.43;;;461.50;2304.00;;;;;;5052607;28;20025;-75
2021/06/17 01:50:36;;;;;;;15.40;9.55;;;461.60;2304.00;;;;;;5054709;28;20031;-76
2021/06/17 01:53:02;;;;;;;11.60;8.52;;;461.60;2278.40;;;;;;5054604;28;20053;-73
2021/06/17 01:55:31;;;;;;;12.25;8.88;;;461.60;2278.40;;;;;;5054494;28;20041;-75
2021/06/17 01:58:01;;;;;;;10.15;8.45;;;461.70;2252.80;;;;;;5053373;28;20549;-75
2021/06/17 02:00:28;;;;;;;16.15;9.77;;;461.70;2252.80;;;;;;5054483;28;20465;-75
2021/06/17 02:02:54;;;;;;;14.00;9.45;;;461.60;2278.40;;;;;;5054600;28;20021;-76
2021/06/17 02:05:22;;;;;;;14.07;9.43;;;461.50;2304.00;;;;;;5054679;28;20021;-74
2021/06/17 02:07:50;;;;;;;14.20;8.73;;;461.30;2329.60;;;;;;5054459;28;20021;-77
2021/06/17 02:10:19;;;;;;;12.70;9.25;;;461.20;2355.20;;;;;;5054214;28;20028;-74
2021/06/17 02:12:46;;;;;;;12.15;8.65;;;461.10;2380.80;;;;;;5054265;28;20470;-76
2021/06/17 02:15:13;;;;;;;15.75;9.02;;;461.00;2380.80;;;;;;5054324;28;20032;-76
2021/06/17 02:17:43;;;;;;;11.27;8.65;;;436.10;2355.20;;;;;;5054429;28;20025;-76
2021/06/17 02:20:09;;;;;;;15.00;8.80;;;460.90;2380.80;;;;;;5054401;28;20037;-75
2021/06/17 02:22:41;;;;;;;11.02;8.48;;;460.80;2380.80;;;;;;5054182;28;20091;-77
2021/06/17 02:25:09;;;;;;;17.25;8.90;;;436.10;2355.20;;;;;;5054231;28;20082;-76
2021/06/17 02:27:37;;;;;;;13.38;8.82;;;460.80;2380.80;;;;;;5054052;28;20044;-76
2021/06/17 02:30:09;;;;;;;12.15;8.90;;;460.90;2380.80;;;;;;5054863;28;20025;-74
2021/06/17 02:32:48;;;;;;;12.73;9.20;;;460.90;2380.80;;;;;;5053752;28;20021;-78
2021/06/17 02:35:19;;;;;;;11.65;9.05;;;435.80;2355.20;;;;;;5053741;28;20033;-74
2021/06/17 02:37:48;;;;;;;11.40;7.88;;;435.50;2355.20;;;;;;5053757;28;20032;-76
2021/06/17 02:40:17;;;;;;;9.80;8.20;;;435.30;2355.20;;;;;;5052079;28;20124;-76
2021/06/17 02:42:44;;;;;;;14.27;8.15;;;435.30;2355.20;;;;;;5053754;28;20351;-75
2021/06/17 02:45:10;;;;;;;12.80;8.77;;;435.30;2355.20;;;;;;5053690;28;20028;-76
2021/06/17 02:47:38;;;;;;;10.50;7.70;;;435.20;2355.20;;;;;;5053885;28;20074;-74
2021/06/17 02:50:06;;;;;;;12.75;7.93;;;410.40;2355.20;;;;;;5054569;28;20028;-76
2021/06/17 02:52:31;;;;;;;10.55;8.35;;;410.30;2355.20;;;;;;5054440;28;20021;-76
2021/06/17 02:54:57;;;;;;;16.38;9.23;;;410.10;2355.20;;;;;;5054155;28;20127;-75
2021/06/17 02:57:34;;;;;;;12.63;9.60;;;410.00;2355.20;;;;;;5053995;28;20021;-76
2021/06/17 03:00:11;;;;;;;14.65;9.02;;;409.90;2355.20;;;;;;5053157;28;20123;-75
2021/06/17 03:03:05;;;;;;;13.20;8.82;;;409.90;2355.20;;;;;;5053524;28;20116;-75
2021/06/17 03:05:52;;;;;;;10.55;8.32;;;409.90;2355.20;;;;;;5052841;28;20068;-74
2021/06/17 03:08:34;;;;;;;12.90;8.93;;;410.00;2355.20;;;;;;5053273;28;20473;-75
2021/06/17 03:11:02;;;;;;;11.98;8.68;;;409.90;2355.20;;;;;;5053109;28;20103;-76
2021/06/17 03:13:32;;;;;;;13.90;9.32;;;409.80;2355.20;;;;;;5053743;28;20025;-73
2021/06/17 03:15:58;;;;;;;16.58;9.65;;;409.90;2355.20;;;;;;5053429;28;20013;-75
2021/06/17 03:18:25;;;;;;;11.13;8.02;;;410.00;2355.20;;;;;;5053433;28;20031;-78
2021/06/17 03:20:52;;;;;;;16.52;9.73;;;410.10;2355.20;;;;;;5053392;28;20033;-75
2021/06/17 03:23:21;;;;;;;14.40;8.68;;;410.30;2355.20;;;;;;5053136;28;20434;-76
2021/06/17 03:25:53;;;;;;;10.77;8.85;;;410.40;2355.20;;;;;;5059693;28;20027;-77
2021/06/17 03:28:20;;;;;;;12.07;10.45;;;435.20;2355.20;;;;;;5057350;28;20033;-77
2021/06/17 03:30:49;;;;;;;12.65;8.85;;;435.30;2355.20;;;;;;5066483;28;20024;-76
2021/06/17 03:33:21;;;;;;;10.23;7.88;;;435.40;2355.20;;;;;;5058395;28;20078;-77
2021/06/17 03:35:48;;;;;;;15.55;8.80;;;435.40;2355.20;;;;;;5059577;28;20029;-75
2021/06/17 03:38:15;;;;;;;13.10;9.30;;;435.30;2355.20;;;;;;5063356;28;20473;-76
2021/06/17 03:40:43;;;;;;;14.50;9.60;;;435.20;2355.20;;;;;;5062926;28;20036;-77
2021/06/17 03:43:10;;;;;;;13.20;8.85;;;410.40;2355.20;;;;;;5073163;28;20017;-78
2021/06/17 03:45:39;;;;;;;12.63;9.52;;;410.40;2355.20;;;;;;5073166;28;20028;-76
2021/06/17 03:48:07;;;;;;;9.10;8.07;;;410.40;2355.20;;;;;;5065803;28;20021;-74
2021/06/17 03:50:34;;;;;;;12.88;8.02;;;410.40;2355.20;;;;;;5052968;28;20143;-76
2021/06/17 03:53:01;;;;;;;15.80;9.45;;;410.30;2355.20;;;;;;5052776;28;20025;-76
2021/06/17 03:55:28;;;;;;;17.50;9.50;;;410.20;2355.20;;;;;;5052478;28;20052;-76
2021/06/17 03:57:58;;;;;;;12.55;8.77;;;410.30;2355.20;;;;;;5052808;28;20025;-76
2021/06/17 04:00:27;;;;;;;13.73;9.25;;;410.30;2355.20;;;;;;5052797;28;20037;-76
2021/06/17 04:02:54;;;;;;;12.15;8.95;;;410.30;2355.20;;;;;;5053019;28;20048;-74
2021/06/17 04:05:21;;;;;;;13.30;9.38;;;410.30;2355.20;;;;;;5052716;28;20028;-77
2021/06/17 04:07:50;;;;;;;12.02;8.77;;;410.40;2355.20;;;;;;5052792;28;20096;-77
2021/06/17 04:10:18;;;;;;;11.05;8.48;;;435.20;2355.20;;;;;;5055207;28;20025;-78
2021/06/17 04:12:45;;;;;;;15.45;9.23;;;435.30;2355.20;;;;;;5056470;28;20017;-76
2021/06/17 04:15:11;;;;;;;16.60;9.00;;;435.40;2355.20;;;;;;5056306;28;20026;-75
2021/06/17 04:17:47;;;;;;;19.10;9.77;;;435.50;2355.20;;;;;;5056541;28;20535;-77
2021/06/17 04:20:20;;;;;;;20.85;9.90;;;435.70;2355.20;;;;;;5055996;28;20029;-74
2021/06/17 04:22:48;;;;;;;11.48;8.85;;;435.80;2355.20;;;;;;5056139;28;20045;-76
2021/06/17 04:25:19;;;;;;;13.95;9.75;;;435.90;2355.20;;;;;;5056099;28;20043;-77
2021/06/17 04:27:46;;;;;;;13.77;8.93;;;436.00;2355.20;;;;;;5056008;28;20049;-75
2021/06/17 04:30:14;;;;;;;15.38;9.20;;;436.10;2355.20;;;;;;5060895;28;20491;-74
2021/06/17 04:32:45;;;;;;;16.08;9.10;;;460.90;2380.80;;;;;;5060688;28;20461;-76
2021/06/17 04:35:12;;;;;;;9.48;8.45;;;461.00;2380.80;;;;;;5067038;28;20107;-76
2021/06/17 04:37:38;;;;;;;11.73;8.60;;;461.10;2380.80;;;;;;5075822;28;20017;-74
2021/06/17 04:40:04;;;;;;;15.18;8.50;;;461.20;2380.80;;;;;;5076261;28;20029;-75
2021/06/17 04:42:31;;;;;;;8.90;8.02;;;461.30;2380.80;;;;;;5077603;28;20023;-76
2021/06/17 04:44:58;;;;;;;15.00;8.85;;;461.30;2380.80;;;;;;5079562;28;20024;-76
2021/06/17 04:47:24;;;;;;;11.63;8.07;;;461.30;2380.80;;;;;;5060658;28;20082;-75
2021/06/17 04:49:50;;;;;;;15.98;8.32;;;461.40;2380.80;;;;;;5059441;28;20061;-76
2021/06/17 04:52:55;;;;;;;11.15;8.23;;;461.40;2380.80;;;;;;5060129;28;20044;-74
2021/06/17 04:55:21;;;;;;;12.50;8.60;;;461.50;2380.80;;;;;;5058281;28;20049;-74
2021/06/17 04:57:47;;;;;;;11.38;7.05;;;461.60;2380.80;;;;;;5056480;28;20071;-77
2021/06/17 05:00:13;;;;;;;15.02;8.13;;;461.60;2380.80;;;;;;5055992;28;20064;-76
2021/06/17 05:02:39;;;;;;;12.40;8.20;;;461.70;2380.80;;;;;;5056745;28;20028;-76
2021/06/17 05:05:07;;;;;;;11.48;8.05;;;486.40;2380.80;;;;;;5056324;28;20029;-75
2021/06/17 05:12:43;;;;;;;13.23;8.00;;;486.60;2380.80;;;;;;5057441;28;20036;-76
2021/06/17 05:15:10;;;;;;;10.63;7.88;;;486.70;2380.80;;;;;;5056146;28;20029;-76
2021/06/17 05:17:37;;;;;;;13.68;7.45;;;486.80;2380.80;;;;;;5055589;28;20079;-77
2021/06/17 05:20:06;;;;;;;9.73;7.25;;;486.90;2380.80;;;;;;5055587;28;20033;-75
2021/06/17 05:22:34;;;;;;;11.52;7.68;;;487.00;2380.80;;;;;;5056710;28;20070;-75
2021/06/17 05:25:01;;;;;;;9.88;7.25;;;487.20;2380.80;;;;;;5056473;28;20491;-76
2021/06/17 05:27:27;;;;;;;13.55;9.45;;;487.30;2380.80;;;;;;5056882;28;20025;-75
2021/06/17 05:29:52;;;;;;;10.77;7.80;;;512.00;2380.80;;;;;;5055958;28;20092;-74
2021/06/17 05:32:19;;;;;;;11.48;7.72;;;512.10;2380.80;;;;;;5057352;28;20106;-75
2021/06/17 05:34:45;;;;;;;14.63;8.00;;;512.20;2355.20;;;;;;5064027;28;20028;-73
2021/06/17 05:37:11;;;;;;;10.18;6.75;;;512.40;2304.00;;;;;;5075321;28;20593;-74
2021/06/17 05:39:40;;;;;;;11.98;7.53;;;512.50;2227.20;;;;;;5075801;28;20032;-77
2021/06/17 05:42:06;;;;;;;12.07;7.78;;;512.60;2227.20;;;;;;5074487;28;20024;-75
2021/06/17 05:44:32;;;;;;;11.00;8.38;;;512.80;2227.20;;;;;;5075238;28;20028;-74
2021/06/17 05:46:58;;;;;;;11.75;8.10;;;537.60;2227.20;;;;;;5074658;28;20029;-76
2021/06/17 05:49:24;;;;;;;15.10;8.43;;;537.70;2201.60;;;;;;5074749;28;20115;-77
2021/06/17 05:51:51;;;;;;;19.20;8.57;;;537.80;2201.60;;;;;;5074428;28;20539;-75
2021/06/17 05:54:17;;;;;;;14.75;9.68;;;537.90;2227.20;;;;;;5074311;28;20063;-77
2021/06/17 05:56:43;;;;;;;19.40;9.45;;;538.00;2227.20;;;;;;5074340;28;20110;-75
2021/06/17 05:59:09;;;;;;;13.52;9.60;;;538.00;2227.20;;;;;;5074234;28;20021;-76
2021/06/17 06:01:35;;;;;;;17.42;10.90;;;538.10;2227.20;;;;;;5073900;28;20484;-75
2021/06/17 06:04:00;;;;;;;15.90;9.07;;;538.20;2227.20;;;;;;5074288;28;20075;-78
2021/06/17 06:06:26;;;;;;;15.00;8.60;;;538.30;2201.60;;;;;;5075170;28;20052;-74
2021/06/17 06:08:52;;;;;;;15.98;9.57;;;538.30;2176.00;;;;;;5074743;28;20024;-74
2021/06/17 06:11:17;;;;;;;20.60;9.48;;;538.30;2150.40;;;;;;5074523;28;20035;-75
2021/06/17 06:13:44;;;;;;;12.93;8.93;;;538.40;2150.40;;;;;;5074420;28;20025;-75
2021/06/17 06:16:10;;;;;;;12.50;8.90;;;538.50;2150.40;;;;;;5073625;28;20044;-74
2021/06/17 06:18:36;;;;;;;16.35;8.65;;;538.50;2124.80;;;;;;5075231;28;20376;-75
2021/06/17 06:21:02;;;;;;;13.52;8.20;;;563.30;2124.80;;;;;;5074713;28;20036;-74
2021/06/17 06:23:29;;;;;;;15.60;8.25;;;563.40;2073.60;;;;;;5074761;28;20028;-74
2021/06/17 06:25:59;;;;;;;14.77;9.35;;;563.50;2073.60;;;;;;5075011;28;20024;-77
2021/06/17 06:28:26;;;;;;;15.38;9.15;;;563.60;2073.60;;;;;;5075553;28;20032;-76
2021/06/17 06:30:53;;;;;;;15.35;8.63;;;563.80;2073.60;;;;;;5075424;28;20031;-74
2021/06/17 06:33:20;;;;;;;18.42;7.70;;;564.00;2073.60;;;;;;5074315;28;20370;-74
2021/06/17 06:35:46;;;;;;;14.65;8.30;;;564.10;1971.20;;;;;;5075170;28;20025;-76
2021/06/17 06:38:12;;;;;;;14.95;8.68;;;564.10;1996.80;;;;;;5074908;28;20104;-75
2021/06/17 06:40:38;;;;;;;15.05;8.68;;;589.00;1945.60;;;;;;5075385;28;20070;-77
2021/06/17 06:43:05;;;;;;;14.13;7.68;;;589.00;1920.00;;;;;;5074968;28;20028;-75
2021/06/17 06:45:31;;;;;;;17.00;7.43;;;589.10;1920.00;;;;;;5075118;28;20132;-75
2021/06/17 06:47:58;;;;;;;13.68;7.70;;;589.20;1868.80;;;;;;5072733;28;20032;-75
2021/06/17 06:50:25;;;;;;;13.23;8.25;;;589.30;1894.40;;;;;;5072517;28;20028;-74
2021/06/17 06:52:51;;;;;;;12.73;7.18;;;589.40;1894.40;;;;;;5089185;28;20060;-76
2021/06/17 06:55:17;;;;;;;12.85;8.05;;;589.50;1868.80;;;;;;5073510;28;20468;-76
2021/06/17 06:57:44;;;;;;;15.35;8.48;;;589.70;1868.80;;;;;;5073560;28;20357;-75
2021/06/17 07:00:12;;;;;;;14.98;8.38;;;614.40;1868.80;;;;;;5073557;28;20032;-76
2021/06/17 07:02:38;;;;;;;11.10;8.13;;;614.50;1817.60;;;;;;5073108;28;20024;-76
2021/06/17 07:05:05;;;;;;;10.32;8.32;;;614.60;1817.60;;;;;;5073647;28;20048;-75
2021/06/17 07:07:31;;;;;;;14.68;8.07;;;614.70;1792.00;;;;;;5073753;28;20025;-76
2021/06/17 07:09:57;;;;;;;8.35;6.70;;;614.70;1766.40;;;;;;5074312;28;20029;-75
2021/06/17 07:12:23;;;;;;;11.18;7.20;;;614.80;1740.80;;;;;;5073291;28;20027;-75
2021/06/17 07:14:48;;;;;;;8.57;6.43;;;614.90;1740.80;;;;;;5073823;28;20044;-76
2021/06/17 07:17:15;;;;;;;11.98;6.63;;;614.90;1715.20;;;;;;5073944;28;20461;-74
2021/06/17 07:19:41;;;;;;;11.90;6.80;;;615.00;1715.20;;;;;;5074091;28;20032;-76
2021/06/17 07:22:07;;;;;;;10.75;6.18;;;615.10;1715.20;;;;;;5075338;28;20017;-74
2021/06/17 07:24:33;;;;;;;9.80;6.53;;;615.30;1689.60;;;;;;5073753;28;20086;-75
2021/06/17 07:26:59;;;;;;;13.43;7.57;;;640.00;1715.20;;;;;;5073523;28;20093;-76
2021/06/17 07:29:24;;;;;;;9.18;5.75;;;640.20;1664.00;;;;;;5073645;28;20498;-74
2021/06/17 07:31:50;;;;;;;7.72;6.47;;;640.30;1612.80;;;;;;5074536;28;20028;-76
2021/06/17 07:34:16;;;;;;;10.18;7.30;;;640.50;1612.80;;;;;;5073877;28;20071;-78
2021/06/17 07:36:43;;;;;;;9.60;5.93;;;640.50;1587.20;;;;;;5074940;28;20025;-74
2021/06/17 07:39:11;;;;;;;6.05;5.45;;;640.70;1587.20;;;;;;5073886;28;20035;-74
2021/06/17 07:41:37;;;;;;;7.75;6.32;;;640.80;1536.00;;;;;;5074214;28;20024;-77
2021/06/17 07:44:04;;;;;;;5.10;4.60;;;665.60;1561.60;;;;;;5075002;28;20024;-74
2021/06/17 07:46:30;;;;;;;6.60;4.80;;;665.70;1536.00;;;;;;5077280;28;20039;-75
2021/06/17 07:48:58;;;;;;;7.82;5.20;;;665.80;1510.40;;;;;;5076987;28;20468;-78
2021/06/17 07:51:25;;;;;;;7.95;5.25;;;665.80;1510.40;;;;;;5076751;28;20020;-76
2021/06/17 07:53:51;;;;;;;8.07;5.75;;;666.00;1536.00;;;;;;5074901;28;20040;-77
2021/06/17 07:56:17;;;;;;;8.38;5.15;;;666.10;1484.80;;;;;;5076827;28;20053;-75
2021/06/17 07:58:43;;;;;;;8.10;4.93;;;666.20;1459.20;;;;;;5076302;28;20043;-77
2021/06/17 08:01:09;;;;;;;6.75;5.72;;;666.30;1459.20;;;;;;5075615;28;20425;-77
2021/06/17 08:03:35;;;;;;;9.57;5.97;;;666.30;1433.60;;;;;;5076812;28;20421;-78
2021/06/17 08:06:01;;;;;;;5.43;4.90;;;666.50;1459.20;;;;;;5076559;28;20063;-77
2021/06/17 08:08:27;;;;;;;10.27;5.43;;;691.30;1433.60;;;;;;5076991;28;20025;-76
2021/06/17 08:10:53;;;;;;;11.73;5.65;;;691.30;1459.20;;;;;;5076750;28;20452;-77
2021/06/17 08:13:18;;;;;;;7.55;5.72;;;691.50;1459.20;;;;;;5076318;28;20031;-75
2021/06/17 08:15:45;;;;;;;8.00;4.55;;;691.70;1433.60;;;;;;5076266;28;20028;-75
2021/06/17 08:18:11;;;;;;;8.95;5.97;;;691.70;1408.00;;;;;;5076218;28;20016;-74
2021/06/17 08:20:37;;;;;;;8.50;5.93;;;691.80;1382.40;;;;;;5075992;28;20033;-75
2021/06/17 08:23:03;;;;;;;8.15;5.85;;;691.80;1408.00;;;;;;5076443;28;20077;-75
2021/06/17 08:25:29;;;;;;;11.82;6.07;;;691.80;1408.00;;;;;;5076495;28;20032;-77
2021/06/17 08:28:00;;;;;;;6.75;4.95;;;691.80;1356.80;;;;;;5076267;28;20017;-76
2021/06/17 08:30:26;;;;;;;6.35;5.25;;;691.90;1382.40;;;;;;5076172;28;20024;-76
2021/06/17 08:32:52;;;;;;;8.77;5.10;;;692.00;1356.80;;;;;;5076095;28;20021;-74
2021/06/17 08:35:18;;;;;;;9.02;4.57;;;716.80;1356.80;;;;;;5076298;28;20032;-77
2021/06/17 08:37:44;;;;;;;7.80;4.65;;;716.90;1356.80;;;;;;5075989;28;20168;-75
2021/06/17 08:40:11;;;;;;;6.45;5.13;;;716.90;1356.80;;;;;;5076069;28;20079;-74
2021/06/17 08:42:37;;;;;;;7.38;5.88;;;717.00;1356.80;;;;;;5075865;28;20024;-75
2021/06/17 08:45:06;;;;;;;9.82;5.78;;;717.00;1356.80;;;;;;5076010;28;20032;-76
2021/06/17 08:47:35;;;;;;;8.43;5.60;;;717.20;1331.20;;;;;;5076253;28;20440;-75
2021/06/17 08:50:02;;;;;;;6.18;5.00;;;717.30;1331.20;;;;;;5075700;28;20017;-77
2021/06/17 08:52:33;;;;;;;8.15;5.40;;;717.40;1356.80;;;;;;5075833;28;20020;-74
2021/06/17 08:55:15;;;;;;;6.30;4.85;;;717.50;1305.60;;;;;;5075163;28;20139;-76
2021/06/17 08:57:41;;;;;;;9.07;5.88;;;717.60;1305.60;;;;;;5075771;28;20469;-77
2021/06/17 09:00:16;;;;;;;6.93;4.78;;;717.70;1280.00;;;;;;5075650;28;20040;-77
2021/06/17 09:02:52;;;;;;;6.47;4.60;;;742.50;1331.20;;;;;;5075746;28;20530;-78
2021/06/17 09:05:18;;;;;;;7.80;4.28;;;742.70;1280.00;;;;;;5075898;28;20108;-76
2021/06/17 09:07:44;;;;;;;8.02;5.00;;;742.90;1254.40;;;;;;5075503;28;20100;-74
2021/06/17 09:10:10;;;;;;;7.30;4.80;;;743.00;1228.80;;;;;;5075450;28;20060;-76
2021/06/17 09:12:48;;;;;;;4.80;4.32;;;743.00;1254.40;;;;;;5075928;28;20438;-77
2021/06/17 09:15:26;;;;;;;4.75;4.25;;;742.90;1280.00;;;;;;5075933;28;20078;-77
2021/06/17 09:18:08;;;;;;;9.18;4.90;;;743.00;1203.20;;;;;;5075193;28;20021;-75
2021/06/17 09:20:35;;;;;;;5.70;4.35;;;743.00;1203.20;;;;;;5074983;28;20041;-75
2021/06/17 09:23:28;;;;;;;6.28;5.22;;;743.10;1228.80;;;;;;5075027;28;20029;-75
2021/06/17 09:25:58;;;;;;;7.47;4.22;;;768.00;1305.60;;;;;;5075034;28;20025;-76
2021/06/17 09:28:25;;;;;;;6.45;5.75;;;768.10;1203.20;;;;;;5075157;28;20024;-76
2021/06/17 09:30:51;;;;;;;5.32;4.63;;;768.20;1228.80;;;;;;5075344;28;20024;-76
2021/06/17 09:33:17;;;;;;;7.65;4.43;;;768.10;1203.20;;;;;;5079625;28;20025;-76
2021/06/17 09:35:58;;;;;;;7.05;4.97;;;768.10;1177.60;;;;;;5082944;28;20495;-78
2021/06/17 09:38:25;;;;;;;7.43;4.57;;;768.10;1177.60;;;;;;5081166;28;20017;-76
2021/06/17 09:40:52;;;;;;;5.82;4.68;;;768.10;1177.60;;;;;;5081994;28;20600;-75
2021/06/17 09:43:28;;;;;;;5.90;5.28;;;768.10;1177.60;;;;;;5088328;28;20031;-75
2021/06/17 09:45:55;;;;;;;9.30;5.65;;;768.00;1203.20;;;;;;5087382;28;20013;-76
2021/06/17 09:48:34;;;;;;;6.95;5.38;;;743.10;1203.20;;;;;;5089334;28;20005;-76
2021/06/17 09:51:29;;;;;;;8.60;5.40;;;743.00;1228.80;;;;;;5081056;28;20016;-77
2021/06/17 09:54:13;;;;;;;7.72;5.93;;;742.90;1228.80;;;;;;5075524;28;20020;-76
2021/06/17 09:56:39;;;;;;;8.55;5.63;;;742.70;1228.80;;;;;;5074799;28;20491;-76
2021/06/17 09:59:07;;;;;;;7.78;6.55;;;742.80;1280.00;;;;;;5075188;28;20066;-78
2021/06/17 10:01:37;;;;;;;7.35;6.25;;;743.00;1331.20;;;;;;5073194;28;20382;-76
2021/06/17 10:04:05;;;;;;;7.30;5.30;;;743.10;1280.00;;;;;;5074550;28;20023;-75
2021/06/17 10:06:33;;;;;;;8.27;6.28;;;743.30;1254.40;;;;;;5073824;28;20078;-75
2021/06/17 10:09:00;;;;;;;10.15;6.55;;;768.10;1280.00;;;;;;5074787;28;20413;-75
2021/06/17 10:11:26;;;;;;;6.65;5.53;;;768.30;1254.40;;;;;;5074210;28;20469;-77
2021/06/17 10:13:52;;;;;;;7.22;6.25;;;768.50;1228.80;;;;;;5074002;28;20037;-75
2021/06/17 10:16:19;;;;;;;13.70;6.15;;;768.70;1228.80;;;;;;5074300;28;20032;-76
2021/06/17 10:18:45;;;;;;;8.65;6.10;;;793.60;1280.00;;;;;;5073904;28;20027;-75
2021/06/17 10:21:14;;;;;;;6.82;6.10;;;793.60;1228.80;;;;;;5073887;28;20028;-76
2021/06/17 10:23:42;;;;;;;6.82;6.00;;;793.70;1177.60;;;;;;5073881;28;20028;-76
2021/06/17 10:26:08;;;;;;;7.60;5.32;;;793.70;1203.20;;;;;;5073784;28;20469;-78
2021/06/17 10:28:40;;;;;;;8.25;5.32;;;793.90;1177.60;;;;;;5073772;28;20419;-76
2021/06/17 10:31:06;;;;;;;7.72;6.28;;;793.80;1152.00;;;;;;5073855;28;20040;-75
2021/06/17 10:33:34;;;;;;;8.77;7.07;;;793.80;1177.60;;;;;;5073868;28;20456;-76
2021/06/17 10:36:22;;;;;;;7.10;6.13;;;793.80;1152.00;;;;;;5073893;28;20032;-76
2021/06/17 10:39:11;;;;;;;7.38;5.40;;;793.90;1152.00;;;;;;5073816;28;20131;-76
2021/06/17 10:41:46;;;;;;;8.05;5.43;;;793.80;1203.20;;;;;;5073883;28;20028;-79
2021/06/17 10:44:36;;;;;;;8.45;5.85;;;793.80;1177.60;;;;;;5073654;28;20028;-77
2021/06/17 10:47:05;;;;;;;9.38;5.80;;;768.90;1152.00;;;;;;5073643;28;20028;-77
2021/06/17 10:49:49;;;;;;;9.40;6.07;;;768.70;1152.00;;;;;;5073530;28;20186;-78
2021/06/17 10:52:30;;;;;;;8.73;5.50;;;768.60;1152.00;;;;;;5073661;28;20422;-77
2021/06/17 10:54:58;;;;;;;7.38;5.82;;;768.50;1152.00;;;;;;5073613;28;20135;-79
2021/06/17 11:00:26;;;;;;;7.90;5.60;;;768.60;1228.80;;;;;;5073942;28;20052;-77
2021/06/17 11:02:58;;;;;;;6.43;5.10;;;768.70;1177.60;;;;;;5073271;28;20469;-77
2021/06/17 11:05:30;;;;;;;7.55;5.70;;;768.90;1152.00;;;;;;5073733;28;20027;-76
2021/06/17 11:08:14;;;;;;;8.07;5.40;;;793.60;1203.20;;;;;;5073388;28;20048;-75
2021/06/17 11:10:44;;;;;;;6.63;5.35;;;793.80;1203.20;;;;;;5071838;28;20385;-76
2021/06/17 11:13:27;;;;;;;7.32;4.95;;;793.90;1152.00;;;;;;5073361;28;20070;-75
2021/06/17 11:15:54;;;;;;;6.72;5.75;;;794.20;1203.20;;;;;;5073262;28;20042;-76
2021/06/17 11:21:23;;;;;;;12.07;6.10;;;794.50;1177.60;;;;;;5077324;28;20055;-76
2021/06/17 11:24:00;;;;;;;7.22;5.80;;;819.40;1126.40;;;;;;5077293;28;20025;-77
2021/06/17 11:26:46;;;;;;;8.07;6.03;;;819.40;1075.20;;;;;;5077317;28;20021;-79
2021/06/17 11:29:14;;;;;;;7.20;5.82;;;819.60;1075.20;;;;;;5077289;28;20052;-76
2021/06/17 11:31:45;;;;;;;7.57;5.88;;;819.60;1075.20;;;;;;5077110;28;20148;-77
2021/06/17 11:34:32;;;;;;;10.50;5.82;;;819.80;1049.60;;;;;;5077254;28;20013;-77
2021/06/17 11:37:02;;;;;;;7.43;4.93;;;819.80;1024.00;;;;;;5069709;28;20467;-77
2021/06/17 11:39:29;;;;;;;5.38;4.88;;;819.80;1075.20;;;;;;5077102;28;20032;-77
2021/06/17 11:41:58;;;;;;;5.18;4.05;;;819.80;1024.00;;;;;;5077583;28;20103;-77
2021/06/17 11:44:26;;;;;;;7.00;4.72;;;819.80;972.80;;;;;;5077083;28;20120;-77
2021/06/17 11:47:10;;;;;;;6.68;4.85;;;820.10;1049.60;;;;;;5076907;28;20025;-77
2021/06/17 11:49:47;;;;;;;6.88;5.50;;;844.80;1024.00;;;;;;5077127;28;20020;-77
2021/06/17 11:52:17;;;;;;;6.80;4.38;;;844.80;1049.60;;;;;;5076830;28;20094;-76
2021/06/17 11:54:45;;;;;;;9.52;5.93;;;844.80;1024.00;;;;;;5076518;28;20044;-78
2021/06/17 11:57:12;;;;;;;7.22;4.63;;;845.00;1049.60;;;;;;5076918;28;20021;-76
2021/06/17 11:59:40;;;;;;;7.40;5.88;;;845.10;1024.00;;;;;;5076615;28;20025;-77
2021/06/17 12:02:23;;;;;;;5.35;4.53;;;845.20;998.40;;;;;;5076466;28;20081;-77
2021/06/17 12:04:57;;;;;;;6.13;4.32;;;845.20;1049.60;;;;;;5076866;28;20070;-77
2021/06/17 12:07:36;;;;;;;6.28;5.65;;;845.20;972.80;;;;;;5076818;28;20020;-77
2021/06/17 12:10:22;;;;;;;6.50;4.60;;;845.00;998.40;;;;;;5076810;28;20031;-76
2021/06/17 12:13:01;;;;;;;4.97;4.32;;;844.90;998.40;;;;;;5076797;28;20032;-77
2021/06/17 12:15:33;;;;;;;6.38;4.40;;;844.80;972.80;;;;;;5076831;28;20464;-76
2021/06/17 12:18:04;;;;;;;4.53;4.13;;;820.10;972.80;;;;;;5076268;28;20035;-76
2021/06/17 12:20:36;;;;;;;6.45;4.95;;;844.90;1024.00;;;;;;5076212;28;20046;-75
2021/06/17 12:23:02;;;;;;;6.78;4.50;;;845.20;998.40;;;;;;5074599;28;20123;-78
2021/06/17 12:25:33;;;;;;;6.07;4.65;;;845.20;998.40;;;;;;5076342;28;20071;-78
2021/06/17 12:28:00;;;;;;;7.57;4.90;;;845.30;1024.00;;;;;;5075968;28;20031;-78
2021/06/17 12:30:39;;;;;;;6.72;4.47;;;845.40;1024.00;;;;;;5074958;28;20023;-77
2021/06/17 12:33:26;;;;;;;6.43;4.95;;;845.60;1049.60;;;;;;5076008;28;20472;-78
2021/06/17 12:35:58;;;;;;;6.45;5.20;;;845.70;998.40;;;;;;5075976;28;20094;-77